Time;durP1;ratioP1;P1;durP2;ratioP2;P2;SDS_P1;SDS_P2;PMS_P1;PMS_P2;Temp;Humidity;BMP_temperature;BMP_pressure;BME280_temperature;BME280_humidity;BME280_pressure;Samples;Min_cycle;Max_cycle;Signal;HPM_P1;HPM_P2
2023/08/27 00:00:10;;;;;;;4.40;3.50;;;;;;;19.63;84.73;98895.27;435089;1257;139242;-63
2023/08/27 00:10:16;;;;;;;5.00;3.50;;;;;;;19.74;83.26;98918.55;435390;1257;140060;-62
2023/08/27 00:20:22;;;;;;;6.90;3.60;;;;;;;19.83;82.43;98933.76;435184;1257;139849;-62
2023/08/27 00:30:28;;;;;;;6.70;4.20;;;;;;;19.82;83.16;98977.14;435050;1257;139746;-62
2023/08/27 00:40:35;;;;;;;6.10;5.50;;;;;;;19.75;83.93;98978.80;435817;1260;139472;-62
2023/08/27 00:50:41;;;;;;;7.30;3.90;;;;;;;19.71;84.27;98947.66;435663;1258;139053;-63
2023/08/27 01:00:49;;;;;;;5.00;3.60;;;;;;;19.75;83.34;98939.42;435211;1256;140673;-61
2023/08/27 01:11:02;;;;;;;4.40;3.60;;;;;;;19.85;82.86;98971.50;435944;1256;139307;-62
2023/08/27 01:21:24;;;;;;;7.20;4.50;;;;;;;19.83;84.21;99009.48;435598;1257;139335;-62
2023/08/27 01:31:35;;;;;;;8.80;6.50;;;;;;;19.78;86.01;99031.80;435685;1257;139565;-62
2023/08/27 01:41:41;;;;;;;13.30;8.20;;;;;;;19.71;87.57;99029.08;435291;1256;139283;-63
2023/08/27 01:51:47;;;;;;;11.00;7.20;;;;;;;19.63;88.76;99007.48;435459;1257;139495;-63
2023/08/27 02:01:53;;;;;;;7.50;6.80;;;;;;;19.55;90.05;99013.15;435191;1254;139871;-62
2023/08/27 02:11:59;;;;;;;9.10;6.20;;;;;;;19.46;91.28;98998.95;435873;1257;139622;-62
2023/08/27 02:22:04;;;;;;;8.90;7.50;;;;;;;19.38;92.19;98973.55;435587;1254;139282;-63
2023/08/27 02:32:11;;;;;;;8.60;7.70;;;;;;;19.28;92.21;98950.25;435302;1257;139518;-63
2023/08/27 02:42:17;;;;;;;8.40;7.60;;;;;;;19.21;92.00;98932.08;435409;1256;139226;-62
2023/08/27 02:52:23;;;;;;;6.50;5.80;;;;;;;19.13;91.75;98904.75;435149;1256;140308;-58
2023/08/27 03:02:29;;;;;;;7.50;5.60;;;;;;;19.09;91.49;98888.02;435189;1254;139133;-63
2023/08/27 03:12:35;;;;;;;7.30;6.50;;;;;;;19.07;91.44;98875.81;435119;1257;139513;-61
2023/08/27 03:22:41;;;;;;;6.90;5.80;;;;;;;18.99;91.42;98859.91;435073;1254;141083;-61
2023/08/27 03:32:47;;;;;;;6.10;5.50;;;;;;;18.96;92.67;98892.89;435076;1257;139098;-61
2023/08/27 03:42:52;;;;;;;7.00;6.30;;;;;;;18.86;93.59;98912.63;435146;1254;139120;-62
2023/08/27 03:52:58;;;;;;;7.90;7.20;;;;;;;18.69;94.22;98922.25;435134;1257;139362;-63
2023/08/27 04:03:06;;;;;;;8.80;6.90;;;;;;;18.53;95.37;98951.06;435811;1257;139375;-64
2023/08/27 04:13:11;;;;;;;9.00;6.80;;;;;;;18.50;96.91;98948.02;435518;1257;139246;-62
2023/08/27 04:23:17;;;;;;;8.00;7.10;;;;;;;18.51;97.63;98934.13;435038;1257;139530;-63
2023/08/27 04:33:23;;;;;;;8.10;7.10;;;;;;;18.56;98.29;98950.28;435155;1254;139831;-62
2023/08/27 04:43:29;;;;;;;8.00;7.30;;;;;;;18.81;99.03;98943.48;435403;1257;139605;-62
2023/08/27 04:53:35;;;;;;;7.00;6.40;;;;;;;19.42;99.98;98940.17;435059;1255;140063;-62
2023/08/27 05:03:40;;;;;;;6.10;5.60;;;;;;;20.13;99.39;98925.73;435340;1257;139270;-62
2023/08/27 05:13:46;;;;;;;6.50;5.80;;;;;;;20.96;98.08;98906.95;435035;1253;140350;-62
2023/08/27 05:23:52;;;;;;;6.40;5.50;;;;;;;22.31;96.98;98902.38;435117;1254;140246;-62
2023/08/27 05:33:59;;;;;;;4.80;4.10;;;;;;;28.26;95.84;98876.42;435331;1257;139307;-64
2023/08/27 05:44:05;;;;;;;4.90;4.50;;;;;;;34.99;76.63;98882.72;435103;1257;139797;-63
2023/08/27 05:54:11;;;;;;;4.90;3.80;;;;;;;39.40;59.40;98891.80;435537;1257;139214;-64
2023/08/27 06:04:16;;;;;;;5.00;3.20;;;;;;;42.63;48.85;98890.75;435128;1254;138598;-63
2023/08/27 06:14:22;;;;;;;4.20;3.80;;;;;;;45.37;41.66;98893.52;435329;1254;187094;-64
2023/08/27 06:24:28;;;;;;;3.50;3.20;;;;;;;47.70;36.13;98883.38;435065;1253;138401;-62
2023/08/27 06:34:36;;;;;;;3.20;3.00;;;;;;;49.39;31.88;98866.13;435277;1253;138798;-62
2023/08/27 06:44:42;;;;;;;3.00;2.80;;;;;;;50.90;28.38;98854.91;434908;1257;138381;-64
2023/08/27 06:54:49;;;;;;;3.10;2.90;;;;;;;52.25;25.87;98862.31;434900;1254;138780;-64
2023/08/27 07:04:55;;;;;;;3.10;2.90;;;;;;;52.97;24.01;98854.77;435769;1256;140056;-66
2023/08/27 07:15:01;;;;;;;3.70;3.10;;;;;;;54.18;22.47;98854.88;435391;1253;138578;-65
2023/08/27 07:25:10;;;;;;;3.40;3.20;;;;;;;54.63;20.77;98859.63;435421;1257;139817;-64
2023/08/27 07:35:15;;;;;;;4.30;3.60;;;;;;;53.42;20.48;98840.65;435300;1256;139781;-73
2023/08/27 07:45:22;;;;;;;2.90;2.70;;;;;;;52.95;20.08;98847.19;435199;1257;138692;-73
2023/08/27 07:55:31;;;;;;;2.90;2.70;;;;;;;52.72;20.07;98859.14;435025;1257;138688;-73
2023/08/27 08:05:37;;;;;;;2.90;2.70;;;;;;;49.98;20.51;98847.69;435714;1253;139046;-73
2023/08/27 08:15:43;;;;;;;3.80;2.20;;;;;;;48.48;21.51;98836.27;435393;1254;138475;-71
2023/08/27 08:25:50;;;;;;;2.00;1.90;;;;;;;48.07;22.13;98831.23;435388;1256;138853;-71
2023/08/27 08:35:56;;;;;;;2.50;2.30;;;;;;;46.91;22.10;98845.69;435229;1255;139596;-71
2023/08/27 08:46:05;;;;;;;2.50;2.30;;;;;;;42.57;24.10;98812.31;435797;1254;138979;-66
2023/08/27 08:56:14;;;;;;;3.10;2.80;;;;;;;39.03;27.03;98784.63;435428;1253;138720;-67
2023/08/27 09:06:21;;;;;;;2.20;2.10;;;;;;;36.32;29.87;98791.61;435372;1254;138564;-63
2023/08/27 09:16:27;;;;;;;2.80;2.60;;;;;;;34.90;31.90;98797.06;435156;1253;140020;-65
2023/08/27 09:26:33;;;;;;;3.10;2.90;;;;;;;33.53;33.58;98789.96;435688;1253;138292;-66
2023/08/27 09:36:40;;;;;;;2.60;2.00;;;;;;;32.80;35.49;98773.31;435480;1253;138552;-61
2023/08/27 09:46:49;;;;;;;3.40;2.70;;;;;;;32.97;36.34;98767.85;435327;1254;140375;-61
2023/08/27 09:56:59;;;;;;;5.90;2.60;;;;;;;32.24;36.96;98758.09;436001;1254;138687;-60
2023/08/27 10:07:15;;;;;;;4.20;2.80;;;;;;;31.59;38.29;98766.50;435478;1254;138829;-60
2023/08/27 10:17:22;;;;;;;3.20;2.90;;;;;;;31.63;38.86;98767.84;435682;1257;138722;-60
2023/08/27 10:27:28;;;;;;;3.70;2.80;;;;;;;31.83;38.54;98758.86;435333;1253;138805;-62
2023/08/27 10:37:36;;;;;;;3.60;2.70;;;;;;;31.45;38.83;98745.60;435561;1253;139392;-61
2023/08/27 10:47:45;;;;;;;3.70;2.80;;;;;;;31.14;38.99;98736.83;435518;1257;138457;-60
2023/08/27 10:57:50;;;;;;;2.70;2.50;;;;;;;30.77;39.01;98719.45;436635;1252;138915;-61
2023/08/27 11:07:59;;;;;;;3.00;2.70;;;;;;;30.62;39.34;98729.11;435309;1254;140974;-61
2023/08/27 11:18:23;;;;;;;3.30;2.60;;;;;;;30.23;39.84;98727.01;435220;1256;138497;-61
2023/08/27 11:28:28;;;;;;;2.50;2.30;;;;;;;30.09;40.52;98713.76;436706;1254;139008;-62
2023/08/27 11:38:34;;;;;;;3.40;3.00;;;;;;;30.04;41.25;98705.47;435718;1256;138400;-62
2023/08/27 11:48:48;;;;;;;3.00;2.50;;;;;;;29.73;41.72;98706.27;435287;1257;140400;-61
2023/08/27 11:58:57;;;;;;;3.40;3.10;;;;;;;29.74;41.95;98705.13;434961;1254;139110;-61
2023/08/27 12:09:05;;;;;;;2.50;2.30;;;;;;;29.74;42.24;98689.59;435449;1253;138263;-61
2023/08/27 12:19:13;;;;;;;2.80;2.60;;;;;;;29.74;42.51;98674.61;435157;1254;140292;-61
2023/08/27 12:29:21;;;;;;;3.60;2.70;;;;;;;29.41;43.07;98676.39;435416;1257;138434;-61
2023/08/27 12:39:27;;;;;;;4.10;3.10;;;;;;;29.47;43.91;98690.38;435547;1257;140055;-61
2023/08/27 12:49:33;;;;;;;3.20;2.70;;;;;;;29.56;44.07;98673.69;435627;1256;139075;-60
2023/08/27 12:59:39;;;;;;;3.60;3.30;;;;;;;29.31;44.27;98660.98;435320;1253;138977;-62
2023/08/27 13:09:44;;;;;;;3.60;3.20;;;;;;;28.82;45.02;98650.65;435665;1256;138574;-60
2023/08/27 13:19:50;;;;;;;3.30;2.90;;;;;;;28.73;45.77;98627.29;435637;1256;138602;-60
2023/08/27 13:29:59;;;;;;;2.90;2.70;;;;;;;28.80;45.97;98628.77;435271;1253;140006;-60
2023/08/27 13:40:06;;;;;;;14.60;4.40;;;;;;;28.84;46.29;98622.54;435503;1257;140084;-61
2023/08/27 13:50:12;;;;;;;3.40;2.70;;;;;;;28.66;46.60;98610.52;435483;1253;138780;-61
2023/08/27 14:00:18;;;;;;;4.30;3.90;;;;;;;28.38;47.26;98628.34;435288;1253;138558;-61
2023/08/27 14:10:24;;;;;;;3.60;2.80;;;;;;;28.23;47.68;98638.52;435923;1253;139736;-60
2023/08/27 14:20:30;;;;;;;4.20;3.70;;;;;;;28.28;48.01;98625.40;436023;1257;138595;-61
2023/08/27 14:30:35;;;;;;;4.30;3.70;;;;;;;28.10;48.33;98607.19;435674;1256;138987;-62
2023/08/27 14:40:44;;;;;;;4.00;3.60;;;;;;;28.00;48.70;98586.10;435327;1257;139340;-61
2023/08/27 14:50:53;;;;;;;6.30;3.20;;;;;;;27.94;49.15;98577.61;435685;1257;139798;-61
2023/08/27 15:01:01;;;;;;;4.30;3.40;;;;;;;27.71;49.39;98570.91;435300;1256;138640;-60
2023/08/27 15:11:08;;;;;;;13.70;5.70;;;;;;;27.43;50.37;98585.47;435396;1257;139387;-61
2023/08/27 15:21:14;;;;;;;4.10;3.80;;;;;;;27.42;50.96;98570.08;435414;1258;138442;-61
2023/08/27 15:31:21;;;;;;;3.70;3.40;;;;;;;27.31;51.17;98565.32;435881;1257;139498;-60
2023/08/27 15:41:31;;;;;;;5.10;4.60;;;;;;;27.18;51.50;98573.61;435548;1256;138667;-59
2023/08/27 15:51:37;;;;;;;6.00;3.90;;;;;;;27.10;51.83;98571.02;436027;1253;138285;-60
2023/08/27 16:01:43;;;;;;;4.40;3.80;;;;;;;27.01;52.20;98558.18;435152;1256;138692;-59
2023/08/27 16:11:49;;;;;;;5.00;4.00;;;;;;;26.74;53.28;98554.29;435406;1257;140080;-60
2023/08/27 16:21:56;;;;;;;4.90;4.20;;;;;;;26.49;54.49;98556.95;435713;1256;139111;-61
2023/08/27 16:32:02;;;;;;;5.20;4.80;;;;;;;26.31;55.58;98531.98;435247;1257;139244;-59
2023/08/27 16:42:08;;;;;;;5.80;5.30;;;;;;;26.15;56.11;98512.52;435510;1257;139657;-60
2023/08/27 16:52:14;;;;;;;6.10;5.50;;;;;;;25.91;57.03;98524.27;435462;1253;139287;-59
2023/08/27 17:02:20;;;;;;;5.40;4.90;;;;;;;25.68;57.99;98522.75;435307;1259;140923;-59
2023/08/27 17:12:26;;;;;;;5.80;5.20;;;;;;;25.45;58.76;98518.84;435503;1253;197461;-61
2023/08/27 17:22:34;;;;;;;5.80;5.10;;;;;;;25.23;59.97;98516.50;435113;1257;138937;-59
2023/08/27 17:32:41;;;;;;;5.70;5.30;;;;;;;24.96;61.23;98518.75;435191;1257;139186;-60
2023/08/27 17:42:48;;;;;;;6.30;5.40;;;;;;;24.72;62.41;98527.08;435216;1254;140962;-60
2023/08/27 17:52:55;;;;;;;7.80;7.00;;;;;;;24.45;63.63;98516.30;435272;1257;141011;-60
2023/08/27 18:03:01;;;;;;;8.20;7.50;;;;;;;24.15;65.03;98510.67;435464;1258;139122;-61
2023/08/27 18:13:07;;;;;;;8.30;7.50;;;;;;;23.91;66.29;98521.60;435964;1257;139440;-62
2023/08/27 18:23:13;;;;;;;7.90;7.20;;;;;;;23.73;67.52;98532.20;435736;1258;140783;-61
2023/08/27 18:33:19;;;;;;;7.80;7.20;;;;;;;23.57;68.55;98541.06;435722;1256;139141;-60
2023/08/27 18:43:26;;;;;;;8.90;8.00;;;;;;;23.36;69.39;98533.80;435967;1256;139395;-60
2023/08/27 18:53:32;;;;;;;8.10;7.40;;;;;;;23.15;70.53;98524.85;435534;1257;139804;-61
2023/08/27 19:03:38;;;;;;;7.70;7.00;;;;;;;22.95;71.49;98519.83;435735;1257;139549;-60
2023/08/27 19:13:44;;;;;;;8.90;7.20;;;;;;;22.76;72.16;98521.00;435537;1257;140754;-61
2023/08/27 19:23:50;;;;;;;9.30;8.50;;;;;;;22.60;72.74;98506.63;435440;1257;140681;-60
2023/08/27 19:33:56;;;;;;;8.80;7.90;;;;;;;22.42;73.70;98494.08;435265;1256;140020;-61
2023/08/27 19:44:02;;;;;;;8.30;7.60;;;;;;;22.28;74.45;98483.20;435238;1254;139538;-61
2023/08/27 19:54:10;;;;;;;8.80;7.80;;;;;;;22.19;75.09;98470.88;435069;1257;140612;-60
2023/08/27 20:04:17;;;;;;;10.30;9.40;;;;;;;22.10;75.72;98474.71;435208;1258;139289;-60
2023/08/27 20:14:23;;;;;;;8.50;7.20;;;;;;;21.98;76.26;98488.98;435461;1258;139682;-59
2023/08/27 20:24:29;;;;;;;7.70;7.00;;;;;;;21.82;76.87;98496.36;435073;1259;140941;-60
2023/08/27 20:34:35;;;;;;;7.70;7.10;;;;;;;21.69;77.81;98498.46;434742;1259;139962;-60
2023/08/27 20:44:45;;;;;;;12.40;8.50;;;;;;;21.56;78.91;98504.53;435055;1259;139215;-60
2023/08/27 20:54:51;;;;;;;7.10;6.50;;;;;;;21.41;80.08;98507.16;435402;1257;139237;-60
2023/08/27 21:04:59;;;;;;;5.50;5.00;;;;;;;21.22;80.03;98509.89;435507;1257;139722;-60
2023/08/27 21:15:04;;;;;;;;;;;;;;;20.98;78.21;98532.58;435339;1257;139382;-59
2023/08/27 21:25:12;;;;;;;10.20;5.60;;;;;;;20.73;77.86;98535.48;435214;1258;126039;-60
2023/08/27 21:35:18;;;;;;;6.80;5.50;;;;;;;20.50;78.98;98561.41;435539;1257;140333;-60
2023/08/27 21:45:25;;;;;;;9.90;6.40;;;;;;;20.36;80.42;98573.16;435248;1257;139099;-60
2023/08/27 21:55:31;;;;;;;9.50;7.50;;;;;;;20.29;81.53;98592.80;435938;1257;139731;-61
2023/08/27 22:05:37;;;;;;;9.30;8.40;;;;;;;20.24;82.42;98612.30;435327;1255;139597;-60
2023/08/27 22:15:43;;;;;;;13.10;8.80;;;;;;;20.19;83.15;98607.15;435561;1257;140206;-60
2023/08/27 22:25:49;;;;;;;8.00;6.80;;;;;;;20.07;83.47;98621.71;435475;1257;139482;-60
2023/08/27 22:35:55;;;;;;;5.10;4.40;;;;;;;19.94;83.57;98629.47;436113;1257;139683;-61
2023/08/27 22:46:01;;;;;;;3.30;3.00;;;;;;;19.80;83.13;98639.31;435732;1256;139400;-59
2023/08/27 22:56:07;;;;;;;3.90;3.00;;;;;;;19.67;83.14;98641.54;435191;1254;139527;-60
2023/08/27 23:06:13;;;;;;;2.50;2.20;;;;;;;19.47;83.90;98646.34;435024;1257;139556;-60
2023/08/27 23:16:19;;;;;;;2.50;2.30;;;;;;;19.20;84.88;98708.68;435079;1257;140162;-61
2023/08/27 23:26:25;;;;;;;2.60;2.00;;;;;;;19.03;86.05;98719.27;435597;1255;140128;-59
2023/08/27 23:36:31;;;;;;;4.90;2.10;;;;;;;18.82;86.83;98751.16;435039;1257;140758;-59
2023/08/27 23:46:37;;;;;;;2.30;1.60;;;;;;;18.67;88.22;98735.64;435163;1254;140159;-60
2023/08/27 23:56:43;;;;;;;2.20;1.90;;;;;;;18.56;89.59;98742.36;435087;1254;175049;-60
